Firestone, Colorado
Current Conditions -  °F | °C
As of 12:35 AM on Wednesday 22 Oct 2014 (Local Time) from KEIK Reporting Station
Broken Clouds Broken Clouds  
Wind Chill: 54°   Ceiling: 12000
Heat Index: 54°   Visibility: 10mi
Dew Point: 48°   Wind: 0mph
Humidity: 80%   Direction: NA
Pressure: 29.96"   Gusts: NA
Location:  40.11°N, 104.94°W
Report Text: KEIK 220635Z AUTO 00000KT 10SM SCT085 BKN120 12/09 A2996 RMK AO2 T01220088
Loading
Personal Weather Stations






























Interactive Weather Map
Tropical Storm Tracking
New forecast layout! Learn more

10-Day Weather Forecast

Advertisements
Track Severe Weather on mobile